Terminal Aerodrome Forecast
Issued by NWS Wakefield, VA

Home | Current Version | Previous Version | Text Only | Print | Product List | Glossary On
Versions: 1 2 3 4 5 6 7 8 9 10 11 12
000
FTUS41 KAKQ 191100
TAFRIC
TAF
KRIC 191120Z 1912/2012 00000KT P6SM BKN060
      TEMPO 1912/1914 -RA BKN040
     FM191400 05006KT P6SM BKN060
     FM200000 11004KT P6SM SCT100=

USA.gov is the U.S. government's official web portal to all federal, state and local government web resources and services.